sensor_id;sensor_type;location;lat;lon;timestamp;pressure;altitude;pressure_sealevel;temperature;humidity
52745;BME280;38637;49.984;20.426;2024-03-25T00:00:21;97986.47;;;2.75;92.76
52745;BME280;38637;49.984;20.426;2024-03-25T00:02:50;97981.56;;;2.72;92.26
52745;BME280;38637;49.984;20.426;2024-03-25T00:05:15;97988.75;;;2.67;92.66
52745;BME280;38637;49.984;20.426;2024-03-25T00:07:47;97984.91;;;2.63;92.38
52745;BME280;38637;49.984;20.426;2024-03-25T00:10:12;97984.09;;;2.62;92.59
52745;BME280;38637;49.984;20.426;2024-03-25T00:12:37;97989.72;;;2.61;92.85
52745;BME280;38637;49.984;20.426;2024-03-25T00:15:03;97992.44;;;2.61;92.46
52745;BME280;38637;49.984;20.426;2024-03-25T00:17:28;97988.44;;;2.63;92.54
52745;BME280;38637;49.984;20.426;2024-03-25T00:19:53;97984.09;;;2.62;92.83
52745;BME280;38637;49.984;20.426;2024-03-25T00:22:21;97987.84;;;2.61;93.02
52745;BME280;38637;49.984;20.426;2024-03-25T00:24:47;97986.78;;;2.62;92.74
52745;BME280;38637;49.984;20.426;2024-03-25T00:27:13;97989.72;;;2.61;92.27
52745;BME280;38637;49.984;20.426;2024-03-25T00:29:38;97987.28;;;2.59;91.43
52745;BME280;38637;49.984;20.426;2024-03-25T00:32:04;97997.13;;;2.53;90.82
52745;BME280;38637;49.984;20.426;2024-03-25T00:34:29;97982.28;;;2.51;90.62
52745;BME280;38637;49.984;20.426;2024-03-25T00:36:55;97987.09;;;2.49;91.16
52745;BME280;38637;49.984;20.426;2024-03-25T00:39:20;97979.03;;;2.49;91.27
52745;BME280;38637;49.984;20.426;2024-03-25T00:41:47;97977.94;;;2.50;91.17
52745;BME280;38637;49.984;20.426;2024-03-25T00:44:12;97982.28;;;2.51;91.06
52745;BME280;38637;49.984;20.426;2024-03-25T00:46:37;97982.28;;;2.51;90.75
52745;BME280;38637;49.984;20.426;2024-03-25T00:49:02;97979.03;;;2.49;90.42
52745;BME280;38637;49.984;20.426;2024-03-25T00:51:28;97985.72;;;2.46;89.59
52745;BME280;38637;49.984;20.426;2024-03-25T00:53:53;97983.72;;;2.42;89.63
52745;BME280;38637;49.984;20.426;2024-03-25T00:56:18;97984.47;;;2.37;90.03
52745;BME280;38637;49.984;20.426;2024-03-25T00:58:43;97985.19;;;2.33;90.14
52745;BME280;38637;49.984;20.426;2024-03-25T01:01:11;97976.88;;;2.34;90.28
52745;BME280;38637;49.984;20.426;2024-03-25T01:03:37;97979.00;;;2.32;90.73
52745;BME280;38637;49.984;20.426;2024-03-25T01:06:02;97973.06;;;2.30;90.29
52745;BME280;38637;49.984;20.426;2024-03-25T01:08:29;97975.75;;;2.30;90.50
52745;BME280;38637;49.984;20.426;2024-03-25T01:10:54;97975.16;;;2.28;90.33
52745;BME280;38637;49.984;20.426;2024-03-25T01:13:20;97978.91;;;2.27;90.18
52745;BME280;38637;49.984;20.426;2024-03-25T01:15:46;97985.34;;;2.26;90.22
52745;BME280;38637;49.984;20.426;2024-03-25T01:18:11;97990.41;;;2.22;90.07
52745;BME280;38637;49.984;20.426;2024-03-25T01:20:36;97978.50;;;2.18;90.41
52745;BME280;38637;49.984;20.426;2024-03-25T01:23:01;97982.38;;;2.11;90.74
52745;BME280;38637;49.984;20.426;2024-03-25T01:25:27;97982.53;;;2.04;90.82
52745;BME280;38637;49.984;20.426;2024-03-25T01:27:52;97977.63;;;2.01;91.00
52745;BME280;38637;49.984;20.426;2024-03-25T01:30:17;97961.63;;;1.94;90.77
52745;BME280;38637;49.984;20.426;2024-03-25T01:32:44;97981.72;;;2.03;90.61
52745;BME280;38637;49.984;20.426;2024-03-25T01:35:11;97981.47;;;2.05;90.40
52745;BME280;38637;49.984;20.426;2024-03-25T01:37:36;97964.25;;;2.06;90.23
52745;BME280;38637;49.984;20.426;2024-03-25T01:40:02;97972.56;;;2.04;90.48
52745;BME280;38637;49.984;20.426;2024-03-25T01:42:29;97973.63;;;2.03;90.61
52745;BME280;38637;49.984;20.426;2024-03-25T01:44:54;97976.66;;;2.07;90.76
52745;BME280;38637;49.984;20.426;2024-03-25T01:47:20;97979.69;;;2.11;90.86
52745;BME280;38637;49.984;20.426;2024-03-25T01:49:45;97976.28;;;2.15;91.56
52745;BME280;38637;49.984;20.426;2024-03-25T01:52:10;97974.03;;;2.24;91.26
52745;BME280;38637;49.984;20.426;2024-03-25T01:54:36;97978.19;;;2.32;91.13
52745;BME280;38637;49.984;20.426;2024-03-25T01:57:01;97960.94;;;2.33;90.89
52745;BME280;38637;49.984;20.426;2024-03-25T01:59:26;97977.16;;;2.49;91.02
52745;BME280;38637;49.984;20.426;2024-03-25T02:01:53;97974.59;;;2.60;91.42
52745;BME280;38637;49.984;20.426;2024-03-25T02:04:18;97970.69;;;2.67;91.21
52745;BME280;38637;49.984;20.426;2024-03-25T02:06:44;97967.25;;;2.72;90.95
52745;BME280;38637;49.984;20.426;2024-03-25T02:09:10;97961.97;;;2.77;90.71
52745;BME280;38637;49.984;20.426;2024-03-25T02:11:36;97963.94;;;2.82;91.48
52745;BME280;38637;49.984;20.426;2024-03-25T02:14:02;97958.59;;;2.87;91.70
52745;BME280;38637;49.984;20.426;2024-03-25T02:16:27;97967.34;;;2.94;91.71
52745;BME280;38637;49.984;20.426;2024-03-25T02:18:52;97968.00;;;3.01;92.09
52745;BME280;38637;49.984;20.426;2024-03-25T02:21:17;97968.13;;;3.11;92.10
52745;BME280;38637;49.984;20.426;2024-03-25T02:23:44;97967.44;;;3.21;92.24
52745;BME280;38637;49.984;20.426;2024-03-25T02:26:10;97968.91;;;3.29;92.14
52745;BME280;38637;49.984;20.426;2024-03-25T02:28:35;97977.41;;;3.37;91.91
52745;BME280;38637;49.984;20.426;2024-03-25T02:31:00;97975.59;;;3.43;91.50
52745;BME280;38637;49.984;20.426;2024-03-25T02:33:26;97970.75;;;3.45;91.28
52745;BME280;38637;49.984;20.426;2024-03-25T02:35:51;97978.59;;;3.47;91.26
52745;BME280;38637;49.984;20.426;2024-03-25T02:38:17;97970.25;;;3.48;91.08
52745;BME280;38637;49.984;20.426;2024-03-25T02:40:43;97971.91;;;3.49;91.04
52745;BME280;38637;49.984;20.426;2024-03-25T02:43:10;97978.91;;;3.50;90.71
52745;BME280;38637;49.984;20.426;2024-03-25T02:45:35;97973.50;;;3.50;90.72
52745;BME280;38637;49.984;20.426;2024-03-25T02:48:00;97973.50;;;3.50;90.80
52745;BME280;38637;49.984;20.426;2024-03-25T02:50:26;97965.66;;;3.49;89.76
52745;BME280;38637;49.984;20.426;2024-03-25T02:52:52;97956.19;;;3.46;90.30
52745;BME280;38637;49.984;20.426;2024-03-25T02:55:17;97958.91;;;3.46;90.14
52745;BME280;38637;49.984;20.426;2024-03-25T02:57:42;97954.56;;;3.45;89.52
52745;BME280;38637;49.984;20.426;2024-03-25T03:00:08;97965.03;;;3.41;89.52
52745;BME280;38637;49.984;20.426;2024-03-25T03:02:34;97961.53;;;3.41;89.82
52745;BME280;38637;49.984;20.426;2024-03-25T03:04:59;97960.94;;;3.39;89.80
52745;BME280;38637;49.984;20.426;2024-03-25T03:07:24;97952.22;;;3.32;89.79
52745;BME280;38637;49.984;20.426;2024-03-25T03:09:50;97958.34;;;3.27;89.63
52745;BME280;38637;49.984;20.426;2024-03-25T03:12:15;97958.34;;;3.27;89.83
52745;BME280;38637;49.984;20.426;2024-03-25T03:14:40;97948.91;;;3.25;89.84
52745;BME280;38637;49.984;20.426;2024-03-25T03:17:05;97955.94;;;3.26;89.31
52745;BME280;38637;49.984;20.426;2024-03-25T03:19:31;97958.03;;;3.23;89.40
52745;BME280;38637;49.984;20.426;2024-03-25T03:21:57;97953.22;;;3.26;89.19
52745;BME280;38637;49.984;20.426;2024-03-25T03:24:22;97947.75;;;3.20;89.23
52745;BME280;38637;49.984;20.426;2024-03-25T03:26:48;97954.34;;;3.30;89.17
52745;BME280;38637;49.984;20.426;2024-03-25T03:29:13;97962.94;;;3.27;89.62
52745;BME280;38637;49.984;20.426;2024-03-25T03:31:39;97962.06;;;3.21;89.38
52745;BME280;38637;49.984;20.426;2024-03-25T03:34:04;97969.03;;;3.17;89.20
52745;BME280;38637;49.984;20.426;2024-03-25T03:36:29;97971.41;;;3.13;88.64
52745;BME280;38637;49.984;20.426;2024-03-25T03:38:54;97965.75;;;3.15;88.70
52745;BME280;38637;49.984;20.426;2024-03-25T03:41:20;97957.41;;;3.16;89.42
52745;BME280;38637;49.984;20.426;2024-03-25T03:43:45;97961.50;;;3.19;89.33
52745;BME280;38637;49.984;20.426;2024-03-25T03:46:10;97971.22;;;3.20;89.02
52745;BME280;38637;49.984;20.426;2024-03-25T03:48:36;97974.72;;;3.20;89.51
52745;BME280;38637;49.984;20.426;2024-03-25T03:51:03;97970.63;;;3.18;90.72
52745;BME280;38637;49.984;20.426;2024-03-25T03:53:28;97979.56;;;3.18;90.71
52745;BME280;38637;49.984;20.426;2024-03-25T03:55:58;97968.38;;;3.10;90.88
52745;BME280;38637;49.984;20.426;2024-03-25T03:58:24;97980.63;;;3.17;90.90
52745;BME280;38637;49.984;20.426;2024-03-25T04:00:50;97975.22;;;3.17;91.23
52745;BME280;38637;49.984;20.426;2024-03-25T04:03:16;97976.63;;;3.20;91.55
52745;BME280;38637;49.984;20.426;2024-03-25T04:05:41;97973.19;;;3.25;91.89
52745;BME280;38637;49.984;20.426;2024-03-25T04:08:06;97979.72;;;3.29;92.00
52745;BME280;38637;49.984;20.426;2024-03-25T04:10:33;97972.75;;;3.33;91.56
52745;BME280;38637;49.984;20.426;2024-03-25T04:12:59;97976.31;;;3.38;91.65
52745;BME280;38637;49.984;20.426;2024-03-25T04:15:24;97975.00;;;3.41;91.84
52745;BME280;38637;49.984;20.426;2024-03-25T04:17:49;97979.41;;;3.47;91.45
52745;BME280;38637;49.984;20.426;2024-03-25T04:20:16;97984.31;;;3.50;90.82
52745;BME280;38637;49.984;20.426;2024-03-25T04:22:42;97971.13;;;3.54;91.34
52745;BME280;38637;49.984;20.426;2024-03-25T04:25:08;97984.94;;;3.57;90.58
52745;BME280;38637;49.984;20.426;2024-03-25T04:27:37;97976.84;;;3.57;90.83
52745;BME280;38637;49.984;20.426;2024-03-25T04:30:03;97982.81;;;3.59;90.55
52745;BME280;38637;49.984;20.426;2024-03-25T04:32:29;97989.03;;;3.60;90.95
52745;BME280;38637;49.984;20.426;2024-03-25T04:34:54;97989.84;;;3.60;90.77
52745;BME280;38637;49.984;20.426;2024-03-25T04:37:19;97981.72;;;3.60;89.94
52745;BME280;38637;49.984;20.426;2024-03-25T04:39:45;97992.53;;;3.60;90.09
52745;BME280;38637;49.984;20.426;2024-03-25T04:42:11;97983.63;;;3.60;90.41
52745;BME280;38637;49.984;20.426;2024-03-25T04:44:36;97985.19;;;3.56;90.04
52745;BME280;38637;49.984;20.426;2024-03-25T04:47:02;97987.09;;;3.55;89.90
52745;BME280;38637;49.984;20.426;2024-03-25T04:49:27;97979.22;;;3.54;90.11
52745;BME280;38637;49.984;20.426;2024-03-25T04:51:52;97982.19;;;3.52;89.46
52745;BME280;38637;49.984;20.426;2024-03-25T04:54:18;97991.91;;;3.53;89.53
52745;BME280;38637;49.984;20.426;2024-03-25T04:56:43;97991.09;;;3.53;89.43
52745;BME280;38637;49.984;20.426;2024-03-25T04:59:09;97989.44;;;3.52;89.29
52745;BME280;38637;49.984;20.426;2024-03-25T05:01:34;97989.44;;;3.52;89.08
52745;BME280;38637;49.984;20.426;2024-03-25T05:03:59;97988.41;;;3.53;89.19
52745;BME280;38637;49.984;20.426;2024-03-25T05:06:25;97990.84;;;3.54;88.91
52745;BME280;38637;49.984;20.426;2024-03-25T05:08:50;97994.34;;;3.55;88.71
52745;BME280;38637;49.984;20.426;2024-03-25T05:11:16;97991.41;;;3.56;88.82
52745;BME280;38637;49.984;20.426;2024-03-25T05:13:41;97986.59;;;3.58;88.84
52745;BME280;38637;49.984;20.426;2024-03-25T05:16:06;97993.09;;;3.62;88.60
52745;BME280;38637;49.984;20.426;2024-03-25T05:18:31;97990.47;;;3.67;88.84
52745;BME280;38637;49.984;20.426;2024-03-25T05:20:56;97999.44;;;3.73;88.29
52745;BME280;38637;49.984;20.426;2024-03-25T05:23:22;97986.59;;;3.80;88.44
52745;BME280;38637;49.984;20.426;2024-03-25T05:25:47;97991.28;;;3.90;88.38
52745;BME280;38637;49.984;20.426;2024-03-25T05:28:12;97993.59;;;4.03;88.21
52745;BME280;38637;49.984;20.426;2024-03-25T05:30:38;97993.44;;;4.15;87.79
52745;BME280;38637;49.984;20.426;2024-03-25T05:33:04;97999.28;;;4.29;87.81
52745;BME280;38637;49.984;20.426;2024-03-25T05:35:29;97996.97;;;4.43;87.13
52745;BME280;38637;49.984;20.426;2024-03-25T05:37:55;97996.28;;;4.57;87.18
52745;BME280;38637;49.984;20.426;2024-03-25T05:40:21;97996.94;;;4.70;86.58
52745;BME280;38637;49.984;20.426;2024-03-25T05:42:46;97989.41;;;4.77;85.69
52745;BME280;38637;49.984;20.426;2024-03-25T05:45:11;97997.13;;;4.90;85.42
52745;BME280;38637;49.984;20.426;2024-03-25T05:47:37;97998.53;;;4.98;85.24
52745;BME280;38637;49.984;20.426;2024-03-25T05:50:02;98001.50;;;5.01;85.06
52745;BME280;38637;49.984;20.426;2024-03-25T05:52:30;98012.44;;;5.17;83.14
52745;BME280;38637;49.984;20.426;2024-03-25T05:54:56;98006.09;;;5.33;82.48
52745;BME280;38637;49.984;20.426;2024-03-25T05:57:21;98003.94;;;5.40;81.98
52745;BME280;38637;49.984;20.426;2024-03-25T05:59:46;98007.78;;;5.49;81.52
52745;BME280;38637;49.984;20.426;2024-03-25T06:02:11;97997.00;;;5.60;80.73
52745;BME280;38637;49.984;20.426;2024-03-25T06:04:37;97998.44;;;5.78;80.43
52745;BME280;38637;49.984;20.426;2024-03-25T06:07:02;98011.84;;;5.94;79.55
52745;BME280;38637;49.984;20.426;2024-03-25T06:09:27;98012.97;;;6.09;78.43
52745;BME280;38637;49.984;20.426;2024-03-25T06:11:53;98014.38;;;6.21;77.15
52745;BME280;38637;49.984;20.426;2024-03-25T06:14:18;98005.16;;;6.33;75.44
52745;BME280;38637;49.984;20.426;2024-03-25T06:16:43;98004.66;;;6.51;75.87
52745;BME280;38637;49.984;20.426;2024-03-25T06:19:08;98011.19;;;6.65;74.30
52745;BME280;38637;49.984;20.426;2024-03-25T06:21:34;98006.06;;;6.84;73.49
52745;BME280;38637;49.984;20.426;2024-03-25T06:23:59;98014.19;;;7.00;73.27
52745;BME280;38637;49.984;20.426;2024-03-25T06:26:24;97981.63;;;6.84;73.47
52745;BME280;38637;49.984;20.426;2024-03-25T06:28:49;98016.63;;;7.11;73.54
52745;BME280;38637;49.984;20.426;2024-03-25T06:31:15;98012.84;;;7.18;72.78
52745;BME280;38637;49.984;20.426;2024-03-25T06:33:59;98023.16;;;7.26;72.08
52745;BME280;38637;49.984;20.426;2024-03-25T06:36:40;98014.44;;;7.34;70.94
52745;BME280;38637;49.984;20.426;2024-03-25T06:39:06;98018.78;;;7.40;71.93
52745;BME280;38637;49.984;20.426;2024-03-25T06:41:31;98015.25;;;7.34;70.18
52745;BME280;38637;49.984;20.426;2024-03-25T06:43:56;98020.97;;;7.38;70.53
52745;BME280;38637;49.984;20.426;2024-03-25T06:46:22;98030.19;;;7.42;71.85
52745;BME280;38637;49.984;20.426;2024-03-25T06:48:47;98029.63;;;7.45;71.14
52745;BME280;38637;49.984;20.426;2024-03-25T06:51:12;98045.09;;;7.50;72.14
52745;BME280;38637;49.984;20.426;2024-03-25T06:53:37;98044.03;;;7.51;71.11
52745;BME280;38637;49.984;20.426;2024-03-25T06:56:03;98042.13;;;7.46;73.07
52745;BME280;38637;49.984;20.426;2024-03-25T06:58:28;98046.47;;;7.37;73.13
52745;BME280;38637;49.984;20.426;2024-03-25T07:00:55;98057.09;;;7.18;73.53
52745;BME280;38637;49.984;20.426;2024-03-25T07:03:21;98065.75;;;7.10;75.15
52745;BME280;38637;49.984;20.426;2024-03-25T07:05:47;98061.97;;;6.90;76.63
52745;BME280;38637;49.984;20.426;2024-03-25T07:08:14;98059.19;;;6.70;76.79
52745;BME280;38637;49.984;20.426;2024-03-25T07:10:41;98071.16;;;6.69;78.63
52745;BME280;38637;49.984;20.426;2024-03-25T07:13:07;98051.63;;;6.62;78.83
52745;BME280;38637;49.984;20.426;2024-03-25T07:15:32;98070.84;;;6.60;80.24
52745;BME280;38637;49.984;20.426;2024-03-25T07:17:57;98081.16;;;6.53;80.88
52745;BME280;38637;49.984;20.426;2024-03-25T07:20:23;98077.56;;;6.42;82.18
52745;BME280;38637;49.984;20.426;2024-03-25T07:22:48;98072.69;;;6.39;82.94
52745;BME280;38637;49.984;20.426;2024-03-25T07:25:14;98064.28;;;6.36;83.35
52745;BME280;38637;49.984;20.426;2024-03-25T07:27:39;98070.00;;;6.44;83.43
52745;BME280;38637;49.984;20.426;2024-03-25T07:30:06;98078.13;;;6.44;83.14
52745;BME280;38637;49.984;20.426;2024-03-25T07:32:31;98072.47;;;6.46;83.53
52745;BME280;38637;49.984;20.426;2024-03-25T07:34:57;98077.88;;;6.46;83.47
52745;BME280;38637;49.984;20.426;2024-03-25T07:37:22;98080.84;;;6.44;83.63
52745;BME280;38637;49.984;20.426;2024-03-25T07:39:47;98088.47;;;6.58;84.07
52745;BME280;38637;49.984;20.426;2024-03-25T07:42:13;98086.63;;;6.79;83.92
52745;BME280;38637;49.984;20.426;2024-03-25T07:44:39;98087.75;;;6.93;82.60
52745;BME280;38637;49.984;20.426;2024-03-25T07:47:04;98087.78;;;7.13;82.03
52745;BME280;38637;49.984;20.426;2024-03-25T07:49:30;98086.38;;;7.31;80.94
52745;BME280;38637;49.984;20.426;2024-03-25T07:51:56;98089.63;;;7.59;79.13
52745;BME280;38637;49.984;20.426;2024-03-25T07:54:21;98086.34;;;7.82;79.53
52745;BME280;38637;49.984;20.426;2024-03-25T07:56:46;98091.47;;;7.99;78.72
52745;BME280;38637;49.984;20.426;2024-03-25T07:59:12;98093.84;;;8.16;78.25
52745;BME280;38637;49.984;20.426;2024-03-25T08:01:37;98096.00;;;8.29;76.93
52745;BME280;38637;49.984;20.426;2024-03-25T08:04:03;98094.06;;;8.40;75.42
52745;BME280;38637;49.984;20.426;2024-03-25T08:06:28;98100.00;;;8.47;74.42
52745;BME280;38637;49.984;20.426;2024-03-25T08:08:53;98101.28;;;8.65;74.93
52745;BME280;38637;49.984;20.426;2024-03-25T08:11:19;98094.13;;;8.85;74.00
52745;BME280;38637;49.984;20.426;2024-03-25T08:13:44;98094.59;;;8.97;73.62
52745;BME280;38637;49.984;20.426;2024-03-25T08:16:09;98097.50;;;9.06;73.79
52745;BME280;38637;49.984;20.426;2024-03-25T08:18:34;98088.47;;;9.15;72.10
52745;BME280;38637;49.984;20.426;2024-03-25T08:21:00;98091.94;;;9.21;70.79
52745;BME280;38637;49.984;20.426;2024-03-25T08:23:25;98097.56;;;9.35;70.74
52745;BME280;38637;49.984;20.426;2024-03-25T08:25:50;98093.97;;;9.39;68.33
52745;BME280;38637;49.984;20.426;2024-03-25T08:28:16;98092.03;;;9.45;68.42
52745;BME280;38637;49.984;20.426;2024-03-25T08:30:41;98092.81;;;9.46;68.01
52745;BME280;38637;49.984;20.426;2024-03-25T08:33:06;98095.50;;;9.51;68.70
52745;BME280;38637;49.984;20.426;2024-03-25T08:35:31;98103.56;;;9.37;67.42
52745;BME280;38637;49.984;20.426;2024-03-25T08:37:57;98097.47;;;9.11;67.79
52745;BME280;38637;49.984;20.426;2024-03-25T08:40:22;98106.06;;;8.89;69.22
52745;BME280;38637;49.984;20.426;2024-03-25T08:42:47;98092.03;;;8.66;69.99
52745;BME280;38637;49.984;20.426;2024-03-25T08:45:12;98099.91;;;8.73;71.07
52745;BME280;38637;49.984;20.426;2024-03-25T08:47:38;98105.53;;;8.87;71.14
52745;BME280;38637;49.984;20.426;2024-03-25T08:50:04;98104.91;;;9.00;71.15
52745;BME280;38637;49.984;20.426;2024-03-25T08:52:29;98108.28;;;9.21;70.55
52745;BME280;38637;49.984;20.426;2024-03-25T08:54:54;98110.44;;;9.24;71.49
52745;BME280;38637;49.984;20.426;2024-03-25T08:57:20;98117.63;;;9.10;71.96
52745;BME280;38637;49.984;20.426;2024-03-25T08:59:45;98122.84;;;9.06;72.16
52745;BME280;38637;49.984;20.426;2024-03-25T09:02:10;98109.50;;;8.60;72.70
52745;BME280;38637;49.984;20.426;2024-03-25T09:04:35;98122.91;;;8.31;76.12
52745;BME280;38637;49.984;20.426;2024-03-25T09:07:01;98127.59;;;8.15;77.47
52745;BME280;38637;49.984;20.426;2024-03-25T09:09:26;98122.72;;;8.02;77.94
52745;BME280;38637;49.984;20.426;2024-03-25T09:12:10;98127.63;;;8.00;78.65
52745;BME280;38637;49.984;20.426;2024-03-25T09:14:36;98133.56;;;8.12;79.76
52745;BME280;38637;49.984;20.426;2024-03-25T09:17:03;98121.78;;;8.37;80.63
52745;BME280;38637;49.984;20.426;2024-03-25T09:19:28;98123.59;;;8.67;79.28
52745;BME280;38637;49.984;20.426;2024-03-25T09:21:54;98131.94;;;8.86;77.22
52745;BME280;38637;49.984;20.426;2024-03-25T09:24:19;98120.94;;;9.07;75.69
52745;BME280;38637;49.984;20.426;2024-03-25T09:26:44;98113.44;;;9.28;75.85
52745;BME280;38637;49.984;20.426;2024-03-25T09:29:11;98124.69;;;9.50;73.69
52745;BME280;38637;49.984;20.426;2024-03-25T09:31:37;98125.59;;;9.70;73.10
52745;BME280;38637;49.984;20.426;2024-03-25T09:34:02;98120.19;;;9.94;73.05
52745;BME280;38637;49.984;20.426;2024-03-25T09:36:27;98122.06;;;9.98;72.43
52745;BME280;38637;49.984;20.426;2024-03-25T09:38:52;98121.13;;;9.84;72.00
52745;BME280;38637;49.984;20.426;2024-03-25T09:41:18;98122.22;;;9.49;71.37
52745;BME280;38637;49.984;20.426;2024-03-25T09:43:48;98121.59;;;8.88;72.74
52745;BME280;38637;49.984;20.426;2024-03-25T09:46:15;98126.31;;;8.67;74.02
52745;BME280;38637;49.984;20.426;2024-03-25T09:48:41;98125.25;;;8.63;75.32
52745;BME280;38637;49.984;20.426;2024-03-25T09:51:07;98117.94;;;8.54;75.39
52745;BME280;38637;49.984;20.426;2024-03-25T09:53:34;98125.41;;;8.17;77.33
52745;BME280;38637;49.984;20.426;2024-03-25T09:55:59;98135.78;;;8.05;77.96
52745;BME280;38637;49.984;20.426;2024-03-25T09:58:25;98122.69;;;8.07;77.13
52745;BME280;38637;49.984;20.426;2024-03-25T10:00:51;98126.22;;;8.18;76.73
52745;BME280;38637;49.984;20.426;2024-03-25T10:03:16;98126.41;;;8.37;75.98
52745;BME280;38637;49.984;20.426;2024-03-25T10:05:41;98128.06;;;8.43;76.14
52745;BME280;38637;49.984;20.426;2024-03-25T10:08:07;98117.66;;;8.55;76.64
52745;BME280;38637;49.984;20.426;2024-03-25T10:10:35;98125.34;;;8.33;76.52
52745;BME280;38637;49.984;20.426;2024-03-25T10:13:04;98123.69;;;8.47;77.85
52745;BME280;38637;49.984;20.426;2024-03-25T10:15:30;98123.84;;;8.71;77.54
52745;BME280;38637;49.984;20.426;2024-03-25T10:17:55;98119.28;;;9.06;76.51
52745;BME280;38637;49.984;20.426;2024-03-25T10:20:21;98122.53;;;9.47;74.75
52745;BME280;38637;49.984;20.426;2024-03-25T10:22:47;98123.84;;;9.84;74.31
52745;BME280;38637;49.984;20.426;2024-03-25T10:25:23;98121.06;;;10.13;71.77
52745;BME280;38637;49.984;20.426;2024-03-25T10:27:59;98116.00;;;10.30;71.63
52745;BME280;38637;49.984;20.426;2024-03-25T10:30:25;98106.28;;;10.19;69.36
52745;BME280;38637;49.984;20.426;2024-03-25T10:33:00;98117.13;;;10.00;70.75
52745;BME280;38637;49.984;20.426;2024-03-25T10:35:27;98108.06;;;9.81;69.70
52745;BME280;38637;49.984;20.426;2024-03-25T10:37:56;98116.75;;;9.54;68.73
52745;BME280;38637;49.984;20.426;2024-03-25T10:40:25;98107.44;;;9.89;70.27
52745;BME280;38637;49.984;20.426;2024-03-25T10:42:51;98112.41;;;9.82;68.30
52745;BME280;38637;49.984;20.426;2024-03-25T10:45:17;98123.22;;;9.92;67.73
52745;BME280;38637;49.984;20.426;2024-03-25T10:47:42;98126.72;;;10.22;69.90
52745;BME280;38637;49.984;20.426;2024-03-25T10:50:09;98128.56;;;10.02;71.36
52745;BME280;38637;49.984;20.426;2024-03-25T10:52:38;98110.84;;;9.41;75.32
52745;BME280;38637;49.984;20.426;2024-03-25T10:55:05;98131.81;;;9.75;72.41
52745;BME280;38637;49.984;20.426;2024-03-25T10:57:31;98129.25;;;10.13;70.34
52745;BME280;38637;49.984;20.426;2024-03-25T10:59:57;98134.06;;;10.26;70.15
52745;BME280;38637;49.984;20.426;2024-03-25T11:02:22;98117.69;;;10.50;67.66
52745;BME280;38637;49.984;20.426;2024-03-25T11:04:48;98123.16;;;10.50;67.70
52745;BME280;38637;49.984;20.426;2024-03-25T11:07:16;98128.59;;;10.50;67.00
52745;BME280;38637;49.984;20.426;2024-03-25T11:09:42;98130.75;;;10.53;67.66
52745;BME280;38637;49.984;20.426;2024-03-25T11:12:12;98133.06;;;10.65;66.13
52745;BME280;38637;49.984;20.426;2024-03-25T11:14:38;98133.34;;;10.64;66.19
52745;BME280;38637;49.984;20.426;2024-03-25T11:17:17;98134.06;;;10.26;66.68
52745;BME280;38637;49.984;20.426;2024-03-25T11:19:42;98126.81;;;10.11;66.66
52745;BME280;38637;49.984;20.426;2024-03-25T11:22:09;98145.13;;;9.82;68.65
52745;BME280;38637;49.984;20.426;2024-03-25T11:24:35;98141.75;;;9.61;68.24
52745;BME280;38637;49.984;20.426;2024-03-25T11:27:03;98137.22;;;9.80;69.75
52745;BME280;38637;49.984;20.426;2024-03-25T11:29:30;98136.69;;;9.78;69.07
52745;BME280;38637;49.984;20.426;2024-03-25T11:31:59;98132.78;;;9.89;70.10
52745;BME280;38637;49.984;20.426;2024-03-25T11:34:26;98124.16;;;10.06;68.91
52745;BME280;38637;49.984;20.426;2024-03-25T11:36:51;98119.50;;;10.07;66.60
52745;BME280;38637;49.984;20.426;2024-03-25T11:39:21;98125.63;;;10.23;66.67
52745;BME280;38637;49.984;20.426;2024-03-25T11:41:46;98124.78;;;10.22;65.91
52745;BME280;38637;49.984;20.426;2024-03-25T11:44:12;98110.41;;;10.17;65.34
52745;BME280;38637;49.984;20.426;2024-03-25T11:46:40;98118.50;;;10.27;64.97
52745;BME280;38637;49.984;20.426;2024-03-25T11:49:15;98106.03;;;10.16;64.44
52745;BME280;38637;49.984;20.426;2024-03-25T11:51:43;98124.25;;;9.96;66.32
52745;BME280;38637;49.984;20.426;2024-03-25T11:54:10;98099.25;;;9.89;66.17
52745;BME280;38637;49.984;20.426;2024-03-25T11:56:36;98118.56;;;9.93;67.78
52745;BME280;38637;49.984;20.426;2024-03-25T11:59:05;98128.25;;;10.04;68.83
52745;BME280;38637;49.984;20.426;2024-03-25T12:01:31;98120.19;;;9.94;69.89
52745;BME280;38637;49.984;20.426;2024-03-25T12:03:56;98122.09;;;9.64;70.04
52745;BME280;38637;49.984;20.426;2024-03-25T12:06:21;98113.16;;;9.24;69.46
52745;BME280;38637;49.984;20.426;2024-03-25T12:08:47;98121.03;;;8.91;69.68
52745;BME280;38637;49.984;20.426;2024-03-25T12:11:31;98123.81;;;8.76;70.82
52745;BME280;38637;49.984;20.426;2024-03-25T12:13:57;98150.34;;;8.35;74.22
52745;BME280;38637;49.984;20.426;2024-03-25T12:16:23;98158.09;;;7.61;76.85
52745;BME280;38637;49.984;20.426;2024-03-25T12:18:49;98171.91;;;7.19;79.19
52745;BME280;38637;49.984;20.426;2024-03-25T12:21:14;98176.13;;;6.68;81.77
52745;BME280;38637;49.984;20.426;2024-03-25T12:23:42;98185.78;;;6.44;83.98
52745;BME280;38637;49.984;20.426;2024-03-25T12:26:07;98187.94;;;6.37;85.83
52745;BME280;38637;49.984;20.426;2024-03-25T12:28:33;98176.97;;;6.16;87.26
52745;BME280;38637;49.984;20.426;2024-03-25T12:31:06;98188.00;;;6.05;88.39
52745;BME280;38637;49.984;20.426;2024-03-25T12:33:40;98202.06;;;6.02;89.84
52745;BME280;38637;49.984;20.426;2024-03-25T12:36:05;98201.31;;;6.06;90.55
52745;BME280;38637;49.984;20.426;2024-03-25T12:38:31;98190.47;;;6.06;90.75
52745;BME280;38637;49.984;20.426;2024-03-25T12:41:14;98197.66;;;6.28;91.02
52745;BME280;38637;49.984;20.426;2024-03-25T12:43:43;98188.78;;;6.48;90.24
52745;BME280;38637;49.984;20.426;2024-03-25T12:46:10;98179.38;;;6.65;89.87
52745;BME280;38637;49.984;20.426;2024-03-25T12:48:36;98177.28;;;6.83;89.57
52745;BME280;38637;49.984;20.426;2024-03-25T12:51:02;98185.44;;;7.03;88.49
52745;BME280;38637;49.984;20.426;2024-03-25T12:53:27;98187.38;;;7.18;87.54